SBSM/RIA METAR and TAF weather

Enter ICAO airport designator
Station Type Date Time Source
SBSM METAR 2019/08/24 18:00 UTC NOAA

SBSM 241800Z 11012KT CAVOK 19/09 Q1023


Station Type Date Time Source
SBSM Decoded METAR 2019/08/24 18:00 UTC NOAA

Station name not available
Aug 24, 2019 - 02:00 PM EDT / 2019.08.24 1800 UTC
Wind: from the ESE (110 degrees) at 14 MPH (12 KT):0
Visibility: greater than 7 mile(s):0
Temperature: 66 F (19 C)
Dew Point: 48 F (9 C)
Relative Humidity: 52%
Pressure (altimeter): 30.21 in. Hg (1023 hPa)
ob: SBSM 241800Z 11012KT CAVOK 19/09 Q1023
cycle: 18

Station Type Date Time Source
SBSM TAF 2019/08/24 12:33 UTC NOAA

TAF SBSM 240300Z 2412/2424 09005KT CAVOK TN10/2412Z TX19/2417Z
BECMG 2413/2415 11010KT
RMK PCX

Example: see airport list